createdAt,value
2023-03-21T00:01:53.970Z,8.74
2023-03-21T00:04:23.133Z,8.81
2023-03-21T00:06:51.007Z,8.84
2023-03-21T00:09:18.700Z,8.85
2023-03-21T00:11:46.010Z,8.78
2023-03-21T00:14:20.523Z,8.72
2023-03-21T00:16:52.238Z,8.69
2023-03-21T00:19:26.714Z,8.64
2023-03-21T00:22:07.030Z,8.61
2023-03-21T00:24:37.242Z,8.58
2023-03-21T00:29:52.803Z,8.37
2023-03-21T00:32:21.729Z,8.28
2023-03-21T00:35:38.394Z,8.22
2023-03-21T00:37:37.463Z,8.16
2023-03-21T00:40:16.209Z,8.13
2023-03-21T00:42:50.219Z,8.08
2023-03-21T00:45:19.685Z,8.05
2023-03-21T00:47:46.632Z,8.03
2023-03-21T00:50:14.336Z,7.99
2023-03-21T00:52:41.713Z,7.95
2023-03-21T00:55:14.597Z,7.89
2023-03-21T00:57:43.590Z,7.84
2023-03-21T01:00:12.653Z,7.80
2023-03-21T01:03:02.623Z,7.78
2023-03-21T01:05:53.862Z,7.81
2023-03-21T01:08:29.311Z,7.85
2023-03-21T01:11:03.604Z,7.89
2023-03-21T01:13:31.854Z,7.93
2023-03-21T01:16:00.262Z,7.97
2023-03-21T01:18:30.186Z,8.01
2023-03-21T01:20:59.925Z,8.09
2023-03-21T01:23:29.326Z,8.11
2023-03-21T01:25:57.652Z,8.15
2023-03-21T01:28:28.269Z,8.18
2023-03-21T01:30:55.807Z,8.25
2023-03-21T01:33:23.573Z,8.27
2023-03-21T01:36:00.157Z,8.30
2023-03-21T01:38:33.431Z,8.32
2023-03-21T01:41:14.160Z,8.32
2023-03-21T01:43:46.297Z,8.30
2023-03-21T01:46:49.347Z,8.29
2023-03-21T01:49:35.297Z,8.34
2023-03-21T01:52:13.049Z,8.28
2023-03-21T01:54:43.734Z,8.21
2023-03-21T01:57:16.986Z,8.12
2023-03-21T01:59:50.573Z,8.06
2023-03-21T02:02:24.561Z,8.04
2023-03-21T02:04:56.300Z,7.99
2023-03-21T02:07:35.903Z,7.92
2023-03-21T02:10:07.418Z,7.87
2023-03-21T02:12:34.453Z,7.83
2023-03-21T02:15:01.351Z,7.80
2023-03-21T02:17:43.619Z,7.77
2023-03-21T02:20:35.457Z,7.74
2023-03-21T02:23:21.227Z,7.71
2023-03-21T02:26:00.566Z,7.70
2023-03-21T02:28:40.108Z,7.69
2023-03-21T02:31:23.450Z,7.69
2023-03-21T02:33:50.177Z,7.70
2023-03-21T02:36:29.143Z,7.71
2023-03-21T02:39:14.890Z,7.70
2023-03-21T02:41:59.539Z,7.66
2023-03-21T02:44:45.422Z,7.63
2023-03-21T02:47:19.946Z,7.63
2023-03-21T02:49:54.937Z,7.63
2023-03-21T02:52:37.849Z,7.62
2023-03-21T02:55:14.501Z,7.58
2023-03-21T02:57:45.351Z,7.56
2023-03-21T03:00:19.351Z,7.56
2023-03-21T03:02:47.543Z,7.57
2023-03-21T03:05:22.341Z,7.59
2023-03-21T03:08:08.104Z,7.57
2023-03-21T03:11:09.181Z,7.58
2023-03-21T03:14:35.661Z,7.58
2023-03-21T03:17:31.116Z,7.56
2023-03-21T03:21:04.411Z,7.53
2023-03-21T03:23:44.150Z,7.48
2023-03-21T03:26:38.453Z,7.46
2023-03-21T03:29:16.218Z,7.44
2023-03-21T03:31:55.440Z,7.42
2023-03-21T03:34:38.456Z,7.41
2023-03-21T03:37:15.151Z,7.40
2023-03-21T03:40:10.656Z,7.38
2023-03-21T03:43:04.163Z,7.37
2023-03-21T03:45:44.367Z,7.37
2023-03-21T03:48:19.053Z,7.37
2023-03-21T03:51:12.273Z,7.36
2023-03-21T03:53:58.375Z,7.37
2023-03-21T03:56:32.550Z,7.35
2023-03-21T03:59:09.866Z,7.37
2023-03-21T04:01:43.282Z,7.37
2023-03-21T04:04:14.162Z,7.37
2023-03-21T04:06:41.919Z,7.38
2023-03-21T04:09:19.161Z,7.41
2023-03-21T04:11:48.490Z,7.44
2023-03-21T04:14:15.820Z,7.45
2023-03-21T04:16:42.890Z,7.45
2023-03-21T04:19:10.019Z,7.45
2023-03-21T04:21:36.816Z,7.46
2023-03-21T04:24:03.944Z,7.47
2023-03-21T04:26:33.598Z,7.44
2023-03-21T04:29:03.870Z,7.44
2023-03-21T04:31:34.135Z,7.42
2023-03-21T04:34:02.966Z,7.39
2023-03-21T04:36:39.286Z,7.36
2023-03-21T04:39:12.580Z,7.34
2023-03-21T04:41:41.308Z,7.33
2023-03-21T04:44:09.175Z,7.32
2023-03-21T04:46:36.578Z,7.33
2023-03-21T04:49:04.087Z,7.32
2023-03-21T04:51:31.145Z,7.33
2023-03-21T04:53:57.984Z,7.34
2023-03-21T04:56:32.897Z,7.33
2023-03-21T04:59:08.966Z,7.34
2023-03-21T05:01:35.735Z,7.36
2023-03-21T05:04:05.118Z,7.40
2023-03-21T05:06:32.337Z,7.44
2023-03-21T05:09:01.806Z,7.46
2023-03-21T05:11:31.119Z,7.47
2023-03-21T05:14:01.528Z,7.50
2023-03-21T05:16:33.591Z,7.51
2023-03-21T05:19:05.544Z,7.51
2023-03-21T05:21:42.202Z,7.49
2023-03-21T05:24:19.552Z,7.45
2023-03-21T05:26:50.765Z,7.47
2023-03-21T05:29:19.075Z,7.46
2023-03-21T05:31:46.613Z,7.47
2023-03-21T05:34:14.430Z,7.49
2023-03-21T05:36:41.563Z,7.50
2023-03-21T05:39:08.409Z,7.50
2023-03-21T05:41:35.484Z,7.54
2023-03-21T05:44:02.262Z,7.57
2023-03-21T05:46:29.132Z,7.59
2023-03-21T05:48:56.121Z,7.62
2023-03-21T05:51:23.268Z,7.69
2023-03-21T05:53:50.600Z,7.72
2023-03-21T05:56:17.825Z,7.77
2023-03-21T05:58:45.018Z,7.81
2023-03-21T06:01:12.052Z,7.83
2023-03-21T06:03:38.957Z,7.86
2023-03-21T06:06:07.091Z,7.89
2023-03-21T06:08:33.988Z,7.93
2023-03-21T06:11:01.260Z,7.96
2023-03-21T06:13:28.146Z,8.03
2023-03-21T06:15:55.061Z,8.07
2023-03-21T06:18:22.489Z,8.11
2023-03-21T06:20:49.498Z,8.17
2023-03-21T06:23:16.529Z,8.23
2023-03-21T06:25:43.708Z,8.29
2023-03-21T06:28:10.947Z,8.35
2023-03-21T06:30:38.206Z,8.40
2023-03-21T06:33:05.073Z,8.45
2023-03-21T06:35:32.453Z,8.46
2023-03-21T06:38:00.098Z,8.46
2023-03-21T06:40:27.413Z,8.48
2023-03-21T06:42:54.157Z,8.51
2023-03-21T06:45:21.432Z,8.49
2023-03-21T06:47:48.377Z,8.46
2023-03-21T06:50:15.896Z,8.40
2023-03-21T06:52:42.832Z,8.32
2023-03-21T06:55:10.207Z,8.28
2023-03-21T06:57:37.417Z,8.22
2023-03-21T07:00:05.850Z,8.17
2023-03-21T07:02:32.928Z,8.16
2023-03-21T07:04:59.976Z,8.17
2023-03-21T07:07:27.979Z,8.15
2023-03-21T07:09:54.924Z,8.17
2023-03-21T07:12:23.384Z,8.13
2023-03-21T07:14:50.518Z,8.10
2023-03-21T07:17:17.589Z,8.09
2023-03-21T07:19:44.952Z,8.12
2023-03-21T07:22:12.128Z,8.16
2023-03-21T07:24:39.093Z,8.17
2023-03-21T07:27:05.996Z,8.19
2023-03-21T07:29:32.929Z,8.17
2023-03-21T07:31:59.852Z,8.18
2023-03-21T07:34:31.900Z,8.18
2023-03-21T07:36:59.105Z,8.19
2023-03-21T07:39:27.350Z,8.21
2023-03-21T07:41:57.649Z,8.25
2023-03-21T07:44:25.175Z,8.34
2023-03-21T07:46:52.042Z,8.39
2023-03-21T07:49:18.926Z,8.46
2023-03-21T07:51:45.821Z,8.52
2023-03-21T07:54:12.688Z,8.55
2023-03-21T07:56:39.682Z,8.57
2023-03-21T07:59:06.535Z,8.57
2023-03-21T08:01:33.412Z,8.62
2023-03-21T08:04:00.296Z,8.66
2023-03-21T08:06:29.574Z,8.70
2023-03-21T08:08:56.523Z,8.74
2023-03-21T08:11:24.937Z,8.79
2023-03-21T08:13:51.879Z,8.79
2023-03-21T08:16:18.836Z,8.83
2023-03-21T08:18:45.724Z,8.87
2023-03-21T08:21:12.603Z,8.94
2023-03-21T08:23:39.626Z,9.00
2023-03-21T08:26:08.113Z,9.02
2023-03-21T08:28:36.869Z,9.03
2023-03-21T08:31:13.256Z,9.04
2023-03-21T08:33:40.542Z,9.06
2023-03-21T08:36:08.007Z,9.11
2023-03-21T08:38:34.934Z,9.15
2023-03-21T08:41:02.285Z,9.19
2023-03-21T08:43:30.098Z,9.23
2023-03-21T08:45:57.335Z,9.26
2023-03-21T08:48:24.393Z,9.37
2023-03-21T08:50:51.799Z,9.47
2023-03-21T08:53:18.747Z,9.55
2023-03-21T08:55:45.889Z,9.61
2023-03-21T08:58:12.953Z,9.67
2023-03-21T09:00:39.892Z,9.76
2023-03-21T09:03:06.776Z,9.81
2023-03-21T09:05:34.055Z,9.82
2023-03-21T09:08:01.982Z,9.85
2023-03-21T09:10:29.209Z,9.86
2023-03-21T09:13:12.300Z,9.89
2023-03-21T09:15:43.264Z,9.91
2023-03-21T09:18:27.490Z,9.89
2023-03-21T09:21:04.874Z,9.81
2023-03-21T09:23:35.474Z,9.77
2023-03-21T09:26:06.297Z,9.77
2023-03-21T09:28:47.889Z,9.75
2023-03-21T09:31:26.761Z,9.72
2023-03-21T09:34:02.361Z,9.72
2023-03-21T09:36:32.447Z,9.75
2023-03-21T09:38:59.914Z,9.82
2023-03-21T09:41:30.074Z,9.89
2023-03-21T09:44:03.993Z,9.99
2023-03-21T09:46:46.316Z,10.03
2023-03-21T09:49:22.281Z,9.97
2023-03-21T09:51:54.709Z,9.94
2023-03-21T09:54:29.977Z,9.91
2023-03-21T09:57:01.736Z,9.86
2023-03-21T09:59:42.373Z,9.84
2023-03-21T10:02:36.359Z,9.85
2023-03-21T10:05:13.622Z,9.86
2023-03-21T10:07:49.274Z,9.84
2023-03-21T10:10:23.091Z,9.80
2023-03-21T10:12:53.082Z,9.79
2023-03-21T10:15:23.650Z,9.82
2023-03-21T10:17:58.756Z,9.82
2023-03-21T10:20:27.189Z,9.83
2023-03-21T10:22:57.084Z,9.86
2023-03-21T10:25:38.469Z,9.86
2023-03-21T10:28:09.436Z,9.84
2023-03-21T10:30:44.939Z,9.84
2023-03-21T10:33:17.616Z,9.81
2023-03-21T10:35:50.333Z,9.84
2023-03-21T10:38:21.748Z,9.91
2023-03-21T10:40:48.798Z,9.91
2023-03-21T10:43:27.807Z,9.91
2023-03-21T10:45:56.819Z,9.96
2023-03-21T10:48:26.030Z,9.96
2023-03-21T10:50:56.842Z,9.98
2023-03-21T10:53:29.514Z,10.04
2023-03-21T10:56:00.859Z,10.12
2023-03-21T10:58:35.494Z,10.18
2023-03-21T11:01:10.894Z,10.12
2023-03-21T11:03:43.845Z,10.10
2023-03-21T11:06:33.242Z,10.10
2023-03-21T11:09:14.212Z,10.08
2023-03-21T11:11:42.179Z,9.98
2023-03-21T11:14:26.642Z,9.98
2023-03-21T11:16:53.877Z,10.07
2023-03-21T11:19:32.707Z,10.07
2023-03-21T11:22:05.735Z,10.05
2023-03-21T11:24:34.366Z,10.04
2023-03-21T11:27:09.419Z,10.08
2023-03-21T11:29:40.868Z,10.11
2023-03-21T11:32:31.801Z,10.11
2023-03-21T11:35:41.046Z,10.15
2023-03-21T11:38:32.774Z,10.22
2023-03-21T11:41:03.303Z,10.23
2023-03-21T11:43:40.044Z,10.15
2023-03-21T11:46:13.531Z,10.09
2023-03-21T11:48:49.237Z,10.04
2023-03-21T11:51:41.854Z,10.04
2023-03-21T11:54:42.965Z,10.07
2023-03-21T11:57:34.483Z,10.11
2023-03-21T12:00:05.370Z,10.09
2023-03-21T12:02:56.063Z,10.11
2023-03-21T12:05:39.969Z,10.11
2023-03-21T12:08:13.891Z,10.19
2023-03-21T12:11:07.948Z,10.27
2023-03-21T12:13:58.809Z,10.25
2023-03-21T12:16:32.699Z,10.23
2023-03-21T12:19:13.295Z,10.25
2023-03-21T12:21:54.793Z,10.26
2023-03-21T12:24:34.633Z,10.22
2023-03-21T12:27:20.910Z,10.21
2023-03-21T12:30:13.542Z,10.28
2023-03-21T12:33:02.774Z,10.30
2023-03-21T12:35:40.414Z,10.34
2023-03-21T12:38:55.265Z,10.47
2023-03-21T12:41:37.958Z,10.54
2023-03-21T12:44:11.870Z,10.56
2023-03-21T12:46:45.932Z,10.54
2023-03-21T12:49:25.140Z,10.50
2023-03-21T12:52:00.132Z,10.43
2023-03-21T12:54:58.570Z,10.39
2023-03-21T12:57:38.246Z,10.37
2023-03-21T13:00:28.989Z,10.37
2023-03-21T13:03:03.180Z,10.30
2023-03-21T13:06:07.221Z,10.25
2023-03-21T13:08:39.984Z,10.20
2023-03-21T13:11:08.851Z,10.17
2023-03-21T13:13:49.965Z,10.19
2023-03-21T13:16:30.644Z,10.20
2023-03-21T13:19:21.320Z,10.25
2023-03-21T13:21:51.162Z,10.24
2023-03-21T13:24:40.438Z,10.23
2023-03-21T13:27:29.805Z,10.30
2023-03-21T13:30:01.802Z,10.32
2023-03-21T13:32:43.465Z,10.29
2023-03-21T13:35:33.014Z,10.34
2023-03-21T13:38:22.903Z,10.38
2023-03-21T13:41:14.628Z,10.40
2023-03-21T13:43:46.292Z,10.34
2023-03-21T13:46:26.990Z,10.30
2023-03-21T13:48:58.744Z,10.26
2023-03-21T13:51:54.339Z,10.14
2023-03-21T13:54:42.943Z,10.14
2023-03-21T13:57:23.414Z,10.18
2023-03-21T13:59:50.373Z,10.16
2023-03-21T14:02:27.643Z,10.19
2023-03-21T14:05:05.715Z,10.20
2023-03-21T14:07:41.659Z,10.22
2023-03-21T14:10:37.590Z,10.19
2023-03-21T14:13:11.124Z,10.17
2023-03-21T14:15:55.029Z,10.13
2023-03-21T14:18:51.868Z,10.09
2023-03-21T14:21:23.558Z,10.07
2023-03-21T14:24:03.990Z,10.06
2023-03-21T14:26:38.153Z,9.99
2023-03-21T14:29:23.013Z,9.98
2023-03-21T14:31:53.978Z,9.97
2023-03-21T14:34:23.261Z,9.97
2023-03-21T14:36:57.540Z,10.00
2023-03-21T14:39:33.573Z,10.09
2023-03-21T14:42:05.585Z,10.08
2023-03-21T14:44:53.460Z,10.09
2023-03-21T14:47:29.009Z,10.09
2023-03-21T14:49:57.787Z,10.11
2023-03-21T14:52:35.013Z,10.07
2023-03-21T14:55:06.259Z,10.06
2023-03-21T14:57:33.957Z,10.08
2023-03-21T15:00:13.842Z,10.08
2023-03-21T15:02:46.347Z,10.03
2023-03-21T15:05:34.928Z,10.00
2023-03-21T15:08:18.650Z,10.03
2023-03-21T15:11:08.679Z,10.03
2023-03-21T15:13:52.871Z,10.07
2023-03-21T15:16:20.981Z,10.12
2023-03-21T15:18:48.646Z,10.22
2023-03-21T15:21:27.048Z,10.29
2023-03-21T15:24:03.288Z,10.25
2023-03-21T15:26:32.293Z,10.23
2023-03-21T15:29:00.972Z,10.23
2023-03-21T15:31:36.965Z,10.25
2023-03-21T15:34:05.372Z,10.28
2023-03-21T15:36:40.156Z,10.23
2023-03-21T15:39:13.111Z,10.19
2023-03-21T15:41:43.507Z,10.11
2023-03-21T15:44:10.475Z,10.09
2023-03-21T15:46:46.612Z,10.10
2023-03-21T15:49:16.680Z,10.13
2023-03-21T15:51:54.176Z,10.12
2023-03-21T15:54:34.377Z,10.18
2023-03-21T15:57:09.836Z,10.17
2023-03-21T15:59:43.052Z,10.22
2023-03-21T16:02:19.660Z,10.21
2023-03-21T16:05:20.566Z,10.15
2023-03-21T16:07:49.081Z,10.09
2023-03-21T16:10:31.955Z,10.01
2023-03-21T16:12:59.603Z,9.96
2023-03-21T16:15:27.361Z,9.95
2023-03-21T16:18:04.055Z,9.95
2023-03-21T16:20:42.803Z,9.95
2023-03-21T16:23:12.544Z,9.96
2023-03-21T16:25:40.066Z,9.95
2023-03-21T16:28:19.969Z,10.01
2023-03-21T16:30:46.862Z,9.98
2023-03-21T16:33:14.157Z,9.87
2023-03-21T16:35:41.708Z,9.76
2023-03-21T16:38:12.822Z,9.72
2023-03-21T16:40:41.951Z,9.66
2023-03-21T16:43:09.814Z,9.59
2023-03-21T16:45:37.496Z,9.54
2023-03-21T16:48:04.742Z,9.40
2023-03-21T16:50:35.065Z,9.29
2023-03-21T16:53:02.805Z,9.26
2023-03-21T16:55:33.234Z,9.23
2023-03-21T16:58:00.805Z,9.24
2023-03-21T17:00:29.460Z,9.25
2023-03-21T17:02:59.639Z,9.22
2023-03-21T17:05:30.585Z,9.17
2023-03-21T17:07:57.988Z,9.10
2023-03-21T17:10:28.080Z,9.06
2023-03-21T17:12:55.476Z,9.07
2023-03-21T17:15:22.727Z,9.06
2023-03-21T17:17:50.697Z,9.01
2023-03-21T17:20:17.987Z,8.94
2023-03-21T17:22:45.663Z,8.88
2023-03-21T17:25:13.465Z,8.88
2023-03-21T17:27:41.562Z,8.88
2023-03-21T17:30:21.919Z,8.86
2023-03-21T17:32:50.681Z,8.79
2023-03-21T17:35:18.680Z,8.82
2023-03-21T17:37:52.629Z,8.85
2023-03-21T17:40:24.001Z,8.90
2023-03-21T17:42:52.497Z,8.93
2023-03-21T17:45:19.816Z,8.90
2023-03-21T17:47:47.538Z,8.90
2023-03-21T17:50:16.658Z,8.88
2023-03-21T17:52:43.919Z,8.85
2023-03-21T17:55:11.163Z,8.81
2023-03-21T17:57:38.489Z,8.78
2023-03-21T18:00:12.859Z,8.75
2023-03-21T18:02:40.929Z,8.73
2023-03-21T18:05:09.958Z,8.73
2023-03-21T18:08:07.955Z,8.75
2023-03-21T18:10:27.245Z,8.77
2023-03-21T18:12:58.677Z,8.79
2023-03-21T18:15:30.062Z,8.81
2023-03-21T18:17:58.634Z,8.78
2023-03-21T18:20:49.945Z,8.84
2023-03-21T18:23:16.440Z,8.91
2023-03-21T18:25:43.486Z,8.97
2023-03-21T18:28:12.456Z,9.00
2023-03-21T18:31:05.418Z,9.01
2023-03-21T18:33:28.708Z,8.99
2023-03-21T18:35:59.866Z,8.92
2023-03-21T18:38:33.474Z,8.81
2023-03-21T18:41:00.404Z,8.77
2023-03-21T18:46:16.113Z,8.81
2023-03-21T18:48:43.187Z,8.80
2023-03-21T18:51:10.406Z,8.79
2023-03-21T18:53:37.649Z,8.78
2023-03-21T18:56:09.826Z,8.78
2023-03-21T18:58:37.603Z,8.82
2023-03-21T19:01:05.353Z,8.85
2023-03-21T19:03:37.081Z,8.86
2023-03-21T19:06:06.795Z,8.88
2023-03-21T19:08:41.804Z,8.92
2023-03-21T19:11:10.952Z,8.91
2023-03-21T19:13:38.413Z,8.87
2023-03-21T19:16:05.682Z,8.80
2023-03-21T19:18:52.088Z,8.79
2023-03-21T19:21:21.931Z,8.74
2023-03-21T19:24:23.034Z,8.62
2023-03-21T19:26:36.938Z,8.52
2023-03-21T19:29:04.167Z,8.50
2023-03-21T19:31:31.737Z,8.53
2023-03-21T19:33:59.378Z,8.53
2023-03-21T19:36:27.029Z,8.57
2023-03-21T19:38:54.491Z,8.61
2023-03-21T19:41:21.500Z,8.57
2023-03-21T19:43:54.867Z,8.48
2023-03-21T19:46:25.665Z,8.46
2023-03-21T19:48:56.570Z,8.46
2023-03-21T19:51:29.395Z,8.36
2023-03-21T19:53:57.984Z,8.27
2023-03-21T19:56:27.404Z,8.20
2023-03-21T19:58:58.405Z,8.10
2023-03-21T20:01:26.545Z,8.04
2023-03-21T20:03:54.572Z,8.02
2023-03-21T20:06:25.448Z,8.06
2023-03-21T20:11:41.248Z,8.14
2023-03-21T20:14:08.451Z,8.18
2023-03-21T20:16:37.122Z,8.21
2023-03-21T20:19:06.351Z,8.24
2023-03-21T20:21:45.228Z,8.30
2023-03-21T20:24:15.021Z,8.38
2023-03-21T20:26:42.646Z,8.38
2023-03-21T20:31:57.397Z,8.24
2023-03-21T20:34:24.304Z,8.19
2023-03-21T20:36:51.236Z,8.14
2023-03-21T20:39:18.175Z,8.13
2023-03-21T20:41:45.051Z,8.14
2023-03-21T20:44:55.961Z,8.12
2023-03-21T20:47:00.434Z,8.02
2023-03-21T20:49:28.470Z,7.96
2023-03-21T20:54:43.870Z,7.91
2023-03-21T20:57:11.079Z,7.86
2023-03-21T20:59:38.844Z,7.81
2023-03-21T21:02:05.977Z,7.79
2023-03-21T21:05:15.638Z,7.82
2023-03-21T21:07:22.288Z,7.89
2023-03-21T21:09:50.386Z,7.91
2023-03-21T21:12:19.601Z,7.90
2023-03-21T21:14:48.799Z,7.88
2023-03-21T21:17:35.219Z,7.87
2023-03-21T21:20:31.084Z,7.86
2023-03-21T21:23:00.088Z,7.89
2023-03-21T21:25:29.428Z,7.93
2023-03-21T21:27:56.493Z,7.97
2023-03-21T21:30:24.057Z,7.96
2023-03-21T21:32:50.856Z,7.98
2023-03-21T21:35:19.875Z,8.02
2023-03-21T21:37:46.760Z,8.02
2023-03-21T21:40:15.940Z,8.04
2023-03-21T21:42:44.214Z,8.00
2023-03-21T21:45:13.427Z,7.95
2023-03-21T21:47:40.778Z,7.92
2023-03-21T21:50:08.464Z,7.86
2023-03-21T21:52:36.043Z,7.83
2023-03-21T21:55:04.491Z,7.83
2023-03-21T21:57:34.774Z,7.81
2023-03-21T22:00:05.638Z,7.79
2023-03-21T22:02:32.455Z,7.74
2023-03-21T22:04:59.370Z,7.72
2023-03-21T22:07:27.715Z,7.67
2023-03-21T22:09:55.327Z,7.59
2023-03-21T22:12:22.188Z,7.52
2023-03-21T22:14:49.050Z,7.48
2023-03-21T22:17:15.969Z,7.46
2023-03-21T22:19:46.225Z,7.43
2023-03-21T22:22:19.648Z,7.31
2023-03-21T22:24:46.805Z,7.21
2023-03-21T22:27:13.704Z,7.20
2023-03-21T22:29:40.634Z,7.24
2023-03-21T22:32:07.470Z,7.27
2023-03-21T22:34:34.708Z,7.31
2023-03-21T22:37:02.888Z,7.33
2023-03-21T22:39:29.759Z,7.33
2023-03-21T22:42:04.926Z,7.36
2023-03-21T22:44:36.295Z,7.40
2023-03-21T22:47:05.528Z,7.44
2023-03-21T22:49:33.262Z,7.48
2023-03-21T22:52:01.471Z,7.48
2023-03-21T22:54:28.293Z,7.45
2023-03-21T22:56:55.647Z,7.45
2023-03-21T22:59:22.982Z,7.43
2023-03-21T23:01:50.628Z,7.38
2023-03-21T23:04:18.593Z,7.33
2023-03-21T23:06:46.614Z,7.30
2023-03-21T23:09:13.585Z,7.27
2023-03-21T23:11:41.223Z,7.23
2023-03-21T23:14:09.022Z,7.17
2023-03-21T23:16:38.528Z,7.12
2023-03-21T23:19:06.030Z,7.07
2023-03-21T23:21:34.799Z,7.06
2023-03-21T23:24:01.660Z,7.04
2023-03-21T23:26:29.174Z,6.99
2023-03-21T23:28:56.116Z,6.94
2023-03-21T23:31:26.210Z,6.92
2023-03-21T23:33:54.256Z,6.93
2023-03-21T23:36:22.998Z,6.94
2023-03-21T23:38:50.684Z,6.93
2023-03-21T23:41:21.533Z,6.91
2023-03-21T23:43:49.184Z,6.89
2023-03-21T23:46:17.436Z,6.89
2023-03-21T23:48:45.982Z,6.88
2023-03-21T23:51:16.216Z,6.84
2023-03-21T23:53:44.615Z,6.75
2023-03-21T23:56:13.861Z,6.71
2023-03-21T23:58:40.866Z,6.70
